Time;durP1;ratioP1;P1;durP2;ratioP2;P2;SDS_P1;SDS_P2;PMS_P1;PMS_P2;Temp;Humidity;BMP_temperature;BMP_pressure;BME280_temperature;BME280_humidity;BME280_pressure;Samples;Min_cycle;Max_cycle;Signal;HPM_P1;HPM_P2
2021/09/01 00:01:25;;;;;;;21.77;12.83;;;;;;;17.21;nan;102158.28;5038825;28;20169;-70
2021/09/01 00:03:51;;;;;;;23.77;13.10;;;;;;;16.82;nan;102164.19;5038377;28;20185;-71
2021/09/01 00:06:16;;;;;;;17.80;12.13;;;;;;;17.02;nan;102174.00;5038492;28;20174;-70
2021/09/01 00:08:42;;;;;;;24.77;11.33;;;;;;;17.00;nan;102174.00;5038791;28;20181;-70
2021/09/01 00:11:07;;;;;;;33.53;23.00;;;;;;;17.12;nan;102170.56;5038503;28;20443;-70
2021/09/01 00:13:32;;;;;;;20.57;13.60;;;;;;;17.10;nan;102168.78;5038395;28;20453;-70
2021/09/01 00:15:58;;;;;;;20.23;12.60;;;;;;;17.20;nan;102164.44;5038686;28;20567;-70
2021/09/01 00:18:23;;;;;;;27.93;12.17;;;;;;;16.93;nan;102176.59;5038355;28;20181;-71
2021/09/01 00:20:48;;;;;;;22.80;12.23;;;;;;;17.14;nan;102181.09;5038329;28;20181;-71
2021/09/01 00:23:15;;;;;;;20.23;12.70;;;;;;;17.25;nan;102173.25;5038426;28;20477;-70
2021/09/01 00:25:43;;;;;;;19.50;12.03;;;;;;;17.09;nan;102178.44;5038226;28;20167;-70
2021/09/01 00:28:09;;;;;;;19.87;12.10;;;;;;;17.05;nan;102184.59;5038373;28;20515;-70
2021/09/01 00:30:34;;;;;;;23.63;13.00;;;;;;;17.55;nan;102180.44;5036973;28;20551;-71
2021/09/01 00:33:00;;;;;;;33.17;21.13;;;;;;;17.15;nan;102189.00;5038091;28;20216;-71
2021/09/01 00:35:25;;;;;;;19.47;12.27;;;;;;;16.93;nan;102193.28;5038159;28;20202;-71
2021/09/01 00:37:50;;;;;;;25.87;14.20;;;;;;;17.06;nan;102194.25;5038086;28;20563;-71
2021/09/01 00:40:16;;;;;;;17.00;11.20;;;;;;;16.87;nan;102189.69;5038309;28;20166;-71
2021/09/01 00:42:42;;;;;;;26.80;13.67;;;;;;;17.12;nan;102194.28;5038421;28;20418;-72
2021/09/01 00:45:08;;;;;;;20.90;12.60;;;;;;;16.82;nan;102190.53;5037189;28;20178;-69
2021/09/01 00:47:35;;;;;;;14.77;12.10;;;;;;;16.85;nan;102189.69;5038016;28;20404;-70
2021/09/01 00:50:03;;;;;;;18.87;11.53;;;;;;;16.97;nan;102195.06;5038427;28;20424;-71
2021/09/01 00:52:29;;;;;;;18.63;12.73;;;;;;;17.12;nan;102189.00;5037830;28;20411;-70
2021/09/01 00:54:55;;;;;;;20.13;12.40;;;;;;;17.04;nan;102193.34;5037148;28;20449;-70
2021/09/01 00:57:20;;;;;;;24.53;13.00;;;;;;;17.11;nan;102194.28;5037589;28;20415;-70
2021/09/01 00:59:45;;;;;;;26.47;14.77;;;;;;;17.04;nan;102187.22;5037797;28;20393;-70
2021/09/01 01:02:11;;;;;;;18.70;12.20;;;;;;;16.89;nan;102195.88;5037795;28;20194;-71
2021/09/01 01:04:37;;;;;;;23.90;13.47;;;;;;;17.06;nan;102189.00;5038159;28;20159;-70
2021/09/01 01:07:06;;;;;;;12.73;11.17;;;;;;;16.90;nan;102192.38;5037993;28;20170;-70
2021/09/01 01:09:34;;;;;;;14.30;10.93;;;;;;;17.08;nan;102186.34;5038051;28;20175;-70
2021/09/01 01:12:11;;;;;;;22.23;12.20;;;;;;;16.87;nan;102190.56;5038360;28;20405;-70
2021/09/01 01:14:38;;;;;;;25.50;12.80;;;;;;;17.09;nan;102191.63;5037381;28;20539;-70
2021/09/01 01:17:09;;;;;;;20.93;12.37;;;;;;;17.05;nan;102192.50;5037758;28;20478;-70
2021/09/01 01:19:42;;;;;;;16.97;11.90;;;;;;;17.02;nan;102194.22;5037946;28;20413;-70
2021/09/01 01:22:08;;;;;;;17.93;12.30;;;;;;;17.18;nan;102196.06;5037735;28;20444;-70
2021/09/01 01:24:51;;;;;;;22.50;13.30;;;;;;;17.13;nan;102195.13;5037523;28;20452;-71
2021/09/01 01:27:19;;;;;;;15.67;12.00;;;;;;;17.14;nan;102195.19;5037729;28;20404;-70
2021/09/01 01:29:44;;;;;;;21.50;13.60;;;;;;;16.82;nan;102198.44;5040975;28;20453;-71
2021/09/01 01:32:10;;;;;;;17.40;13.00;;;;;;;16.78;nan;102196.66;5041450;28;20427;-70
2021/09/01 01:34:35;;;;;;;16.57;13.40;;;;;;;17.04;nan;102203.88;5041485;28;20198;-71
2021/09/01 01:37:07;;;;;;;16.40;12.67;;;;;;;16.91;nan;102200.28;5041214;28;20265;-71
2021/09/01 01:39:32;;;;;;;19.63;13.33;;;;;;;17.02;nan;102192.44;5041228;28;20547;-71
2021/09/01 01:41:57;;;;;;;18.83;13.23;;;;;;;16.93;nan;102190.66;5041297;28;20405;-71
2021/09/01 01:44:22;;;;;;;19.10;13.77;;;;;;;16.70;nan;102202.72;5040940;28;20173;-72
2021/09/01 01:46:48;;;;;;;19.03;15.13;;;;;;;16.58;nan;102195.63;5041256;28;20540;-72
2021/09/01 01:49:13;;;;;;;17.57;13.60;;;;;;;16.84;nan;102204.63;5041439;28;20224;-71
2021/09/01 01:51:52;;;;;;;23.10;15.47;;;;;;;16.79;nan;102205.44;5041060;28;20224;-71
2021/09/01 01:54:18;;;;;;;22.00;13.87;;;;;;;17.11;nan;102208.31;5041866;28;20611;-71
2021/09/01 01:56:43;;;;;;;17.07;14.37;;;;;;;16.90;nan;102202.91;5040057;28;20459;-71
2021/09/01 01:59:09;;;;;;;17.17;14.80;;;;;;;16.81;nan;102199.31;5040731;28;20214;-71
2021/09/01 02:01:34;;;;;;;24.30;15.43;;;;;;;16.69;nan;102208.88;5041042;28;20197;-72
2021/09/01 02:03:59;;;;;;;25.07;16.50;;;;;;;16.72;nan;102204.50;5040505;28;20182;-71
2021/09/01 02:06:26;;;;;;;22.43;17.60;;;;;;;16.81;nan;102209.84;5040629;28;20442;-71
2021/09/01 02:08:52;;;;;;;21.23;18.13;;;;;;;16.81;nan;102204.56;5041006;28;20178;-71
2021/09/01 02:11:17;;;;;;;25.50;17.83;;;;;;;16.91;nan;102199.41;5040881;28;20828;-71
2021/09/01 02:13:43;;;;;;;21.67;17.57;;;;;;;16.41;nan;102193.75;5040363;28;20239;-71
2021/09/01 02:16:08;;;;;;;27.07;18.53;;;;;;;16.74;nan;102192.25;5040831;28;20555;-70
2021/09/01 02:18:33;;;;;;;24.80;16.67;;;;;;;16.61;nan;102198.28;5040424;28;20181;-70
2021/09/01 02:20:59;;;;;;;26.30;18.30;;;;;;;16.57;nan;102189.47;5040383;28;20189;-70
2021/09/01 02:23:24;;;;;;;26.47;19.07;;;;;;;16.86;nan;102198.47;5040524;28;20166;-70
2021/09/01 02:25:49;;;;;;;30.67;18.53;;;;;;;16.93;nan;102192.41;5040155;28;20177;-70
2021/09/01 02:28:14;;;;;;;29.20;18.10;;;;;;;17.06;nan;102198.63;5040337;28;20454;-71
2021/09/01 02:30:40;;;;;;;28.00;19.57;;;;;;;16.95;nan;102195.91;5039923;28;20249;-71
2021/09/01 02:33:05;;;;;;;27.57;18.47;;;;;;;16.97;nan;102194.19;5040054;28;20174;-70
2021/09/01 02:35:30;;;;;;;26.50;18.87;;;;;;;17.26;nan;102201.38;5040335;28;20560;-69
2021/09/01 02:37:56;;;;;;;28.97;18.93;;;;;;;17.27;nan;102189.97;5039923;28;20181;-70
2021/09/01 02:40:22;;;;;;;30.27;19.50;;;;;;;17.05;nan;102200.38;5039801;28;20218;-71
2021/09/01 02:42:47;;;;;;;29.17;19.33;;;;;;;16.94;nan;102200.31;5040829;28;20210;-71
2021/09/01 02:45:15;;;;;;;28.23;19.43;;;;;;;16.99;nan;102197.69;5039105;28;20185;-71
2021/09/01 02:47:40;;;;;;;30.97;20.17;;;;;;;16.64;nan;102203.56;5039841;28;20180;-70
2021/09/01 02:50:06;;;;;;;26.60;19.40;;;;;;;17.08;nan;102200.41;5040086;28;20516;-70
2021/09/01 02:52:31;;;;;;;31.23;20.20;;;;;;;17.00;nan;102194.22;5038906;28;20551;-71
2021/09/01 02:54:57;;;;;;;30.60;20.00;;;;;;;17.06;nan;102191.63;5038673;28;20431;-70
2021/09/01 02:57:22;;;;;;;32.00;21.27;;;;;;;17.05;nan;102197.75;5040228;28;20171;-70
2021/09/01 02:59:47;;;;;;;30.33;19.53;;;;;;;16.78;nan;102188.75;5039581;28;20185;-70
2021/09/01 03:02:13;;;;;;;32.80;19.60;;;;;;;17.01;nan;102180.16;5039574;28;20170;-70
2021/09/01 03:04:38;;;;;;;33.63;20.07;;;;;;;17.02;nan;102187.19;5039615;28;20221;-70
2021/09/01 03:07:03;;;;;;;33.77;18.80;;;;;;;16.87;nan;102180.03;5039396;28;20202;-71
2021/09/01 03:09:29;;;;;;;34.03;20.37;;;;;;;16.87;nan;102184.44;5039397;28;20216;-70
2021/09/01 03:11:54;;;;;;;38.10;18.87;;;;;;;16.87;nan;102179.16;5039632;28;20174;-70
2021/09/01 03:14:19;;;;;;;39.70;21.10;;;;;;;17.08;nan;102181.94;5039158;28;20184;-70
2021/09/01 03:16:45;;;;;;;32.53;21.00;;;;;;;16.76;nan;102174.69;5039629;28;20402;-70
2021/09/01 03:19:10;;;;;;;37.80;21.77;;;;;;;16.77;nan;102176.44;5039681;28;20220;-70
2021/09/01 03:21:35;;;;;;;36.97;21.30;;;;;;;16.53;nan;102184.19;5039160;28;20229;-70
2021/09/01 03:24:01;;;;;;;36.43;20.80;;;;;;;16.59;nan;102193.00;5038976;28;20193;-70
2021/09/01 03:26:28;;;;;;;34.33;21.07;;;;;;;17.05;nan;102181.03;5039394;28;20197;-70
2021/09/01 03:28:53;;;;;;;33.37;21.37;;;;;;;16.72;nan;102179.94;5039039;28;20198;-70
2021/09/01 03:31:19;;;;;;;35.60;20.43;;;;;;;16.91;nan;102181.84;5038968;28;20503;-70
2021/09/01 03:33:44;;;;;;;31.70;20.90;;;;;;;16.86;nan;102175.66;5039239;28;20224;-70
2021/09/01 03:36:09;;;;;;;36.17;20.90;;;;;;;16.73;nan;102186.97;5038857;28;20292;-72
2021/09/01 03:38:36;;;;;;;34.70;21.00;;;;;;;16.58;nan;102187.75;5038202;28;20524;-71
2021/09/01 03:41:01;;;;;;;41.40;19.53;;;;;;;16.44;nan;102187.59;5039197;28;20474;-71
2021/09/01 03:43:26;;;;;;;45.67;21.00;;;;;;;16.47;nan;102193.78;5038858;28;20208;-70
2021/09/01 03:45:54;;;;;;;32.07;19.93;;;;;;;16.62;nan;102193.03;5038777;28;20180;-70
2021/09/01 03:48:21;;;;;;;36.03;19.67;;;;;;;16.61;nan;102195.66;5039214;28;20170;-71
2021/09/01 03:50:46;;;;;;;31.80;19.10;;;;;;;16.62;nan;102197.41;5037964;28;20436;-70
2021/09/01 03:53:11;;;;;;;37.23;20.83;;;;;;;16.56;nan;102192.09;5038126;28;20486;-71
2021/09/01 03:55:36;;;;;;;31.73;20.10;;;;;;;16.35;nan;102192.81;5038855;28;20198;-72
2021/09/01 03:58:02;;;;;;;35.27;21.17;;;;;;;16.62;nan;102192.16;5038599;28;20170;-70
2021/09/01 04:00:27;;;;;;;29.13;20.03;;;;;;;16.76;nan;102197.53;5038386;28;20551;-71
2021/09/01 04:02:52;;;;;;;33.77;20.10;;;;;;;16.14;nan;102203.16;5038898;28;20631;-71
2021/09/01 04:05:18;;;;;;;31.70;19.47;;;;;;;16.38;nan;102198.09;5038520;28;20185;-70
2021/09/01 04:07:43;;;;;;;33.67;19.13;;;;;;;16.30;nan;102198.00;5038373;28;20174;-70
2021/09/01 04:10:09;;;;;;;33.10;18.37;;;;;;;16.52;nan;102196.47;5037420;28;20582;-70
2021/09/01 04:12:34;;;;;;;33.73;18.63;;;;;;;16.02;nan;102199.50;5038504;28;20178;-70
2021/09/01 04:15:00;;;;;;;31.73;18.57;;;;;;;16.21;nan;102200.56;5037533;28;20281;-70
2021/09/01 04:17:29;;;;;;;35.53;20.40;;;;;;;16.39;nan;102203.38;5038802;28;20174;-69
2021/09/01 04:19:55;;;;;;;32.40;20.37;;;;;;;16.33;nan;102203.28;5038174;28;20181;-70
2021/09/01 04:22:20;;;;;;;35.77;19.57;;;;;;;16.43;nan;102204.28;5038221;28;20802;-69
2021/09/01 04:24:45;;;;;;;33.90;20.03;;;;;;;16.49;nan;102210.50;5038360;28;20166;-71
2021/09/01 04:27:10;;;;;;;27.30;19.30;;;;;;;16.39;nan;102199.88;5038163;28;20220;-70
2021/09/01 04:29:36;;;;;;;27.97;19.60;;;;;;;16.63;nan;102204.47;5038134;28;20554;-71
2021/09/01 04:32:01;;;;;;;39.90;21.23;;;;;;;16.40;nan;102202.50;5038663;28;20414;-70
2021/09/01 04:34:27;;;;;;;32.30;20.00;;;;;;;16.41;nan;102193.75;5037859;28;20174;-71
2021/09/01 04:36:52;;;;;;;36.53;21.57;;;;;;;16.33;nan;102198.94;5038021;28;20178;-70
2021/09/01 04:39:17;;;;;;;35.40;21.30;;;;;;;16.41;nan;102200.75;5038566;28;20177;-70
2021/09/01 04:41:43;;;;;;;35.70;20.10;;;;;;;16.16;nan;102200.53;5037981;28;20178;-70
2021/09/01 04:44:08;;;;;;;33.53;20.17;;;;;;;16.20;nan;102204.94;5037836;28;20182;-70
2021/09/01 04:46:33;;;;;;;30.13;18.47;;;;;;;16.32;nan;102206.81;5038514;28;20170;-71
2021/09/01 04:48:59;;;;;;;35.17;19.00;;;;;;;16.34;nan;102212.97;5037933;28;20206;-70
2021/09/01 04:51:24;;;;;;;31.97;20.63;;;;;;;16.34;nan;102205.06;5038035;28;20178;-70
2021/09/01 04:53:49;;;;;;;31.63;21.10;;;;;;;16.34;nan;102205.06;5038259;28;20436;-70
2021/09/01 04:56:15;;;;;;;35.83;20.10;;;;;;;16.26;nan;102210.25;5037844;28;20401;-70
2021/09/01 04:58:40;;;;;;;36.63;20.03;;;;;;;16.52;nan;102214.00;5037882;28;20458;-70
2021/09/01 05:01:05;;;;;;;26.53;18.70;;;;;;;16.15;nan;102212.78;5038379;28;20528;-70
2021/09/01 05:03:30;;;;;;;28.47;18.30;;;;;;;16.31;nan;102213.81;5039296;28;20543;-71
2021/09/01 05:05:56;;;;;;;29.50;19.13;;;;;;;16.15;nan;102220.66;5041537;28;20181;-70
2021/09/01 05:08:21;;;;;;;27.83;18.37;;;;;;;16.05;nan;102217.94;5042118;28;20171;-69
2021/09/01 05:10:47;;;;;;;36.33;18.97;;;;;;;16.19;nan;102218.09;5041642;28;20543;-70
2021/09/01 05:13:12;;;;;;;33.03;19.83;;;;;;;16.32;nan;102225.25;5041509;28;20264;-71
2021/09/01 05:15:39;;;;;;;26.20;18.23;;;;;;;16.56;nan;102223.69;5042026;28;20584;-70
2021/09/01 05:18:04;;;;;;;28.03;17.10;;;;;;;16.28;nan;102220.81;5041442;28;20269;-70
2021/09/01 05:20:31;;;;;;;23.00;16.70;;;;;;;16.38;nan;102217.38;5041312;28;20793;-69
2021/09/01 05:23:02;;;;;;;24.80;17.00;;;;;;;16.47;nan;102229.75;5024503;28;20544;-70
2021/09/01 05:25:29;;;;;;;22.53;15.97;;;;;;;16.58;nan;102238.63;5041288;28;20502;-70
2021/09/01 05:27:56;;;;;;;22.73;14.87;;;;;;;16.38;nan;102245.47;5041442;28;20712;-69
2021/09/01 05:30:21;;;;;;;23.33;15.80;;;;;;;16.10;nan;102242.53;5040959;28;20431;-71
2021/09/01 05:32:49;;;;;;;17.07;14.73;;;;;;;16.70;nan;102245.75;5041259;28;20434;-71
2021/09/01 05:35:14;;;;;;;18.27;14.50;;;;;;;16.45;nan;102248.19;5041151;28;20205;-70
2021/09/01 05:37:40;;;;;;;20.67;13.70;;;;;;;16.48;nan;102252.56;5041149;28;20417;-70
2021/09/01 05:40:07;;;;;;;19.00;14.87;;;;;;;16.28;nan;102252.41;5041107;28;20170;-69
2021/09/01 05:42:32;;;;;;;19.73;14.93;;;;;;;16.65;nan;102253.59;5041457;28;20174;-70
2021/09/01 05:45:00;;;;;;;22.23;14.50;;;;;;;16.65;nan;102250.09;5040882;28;20417;-70
2021/09/01 05:47:26;;;;;;;18.80;14.03;;;;;;;16.90;nan;102252.97;5040845;28;20559;-71
2021/09/01 05:49:54;;;;;;;18.77;13.70;;;;;;;17.02;nan;102255.69;5059652;28;20487;-69
2021/09/01 05:52:19;;;;;;;23.43;15.23;;;;;;;17.09;nan;102251.34;5065347;28;20437;-69
2021/09/01 05:54:46;;;;;;;20.43;15.40;;;;;;;16.76;nan;102247.56;5070193;28;20452;-70
2021/09/01 05:57:14;;;;;;;22.30;15.27;;;;;;;17.06;nan;102252.22;5061145;28;20195;-70
2021/09/01 05:59:47;;;;;;;26.13;15.93;;;;;;;16.99;nan;102250.41;5060634;28;20419;-71
2021/09/01 06:02:25;;;;;;;22.30;14.53;;;;;;;16.96;nan;102261.78;5060734;28;20427;-71
2021/09/01 06:04:52;;;;;;;24.40;16.63;;;;;;;16.91;nan;102257.38;5067341;28;20711;-71
2021/09/01 06:07:18;;;;;;;20.30;16.07;;;;;;;16.87;nan;102264.31;5068481;28;20442;-70
2021/09/01 06:09:45;;;;;;;22.97;16.53;;;;;;;17.21;nan;102267.25;5075594;28;20427;-71
2021/09/01 06:12:15;;;;;;;24.13;17.20;;;;;;;17.09;nan;102269.78;5063149;28;20451;-71
2021/09/01 06:14:41;;;;;;;25.50;16.80;;;;;;;17.20;nan;102269.84;5073017;28;20495;-69
2021/09/01 06:17:06;;;;;;;28.90;17.43;;;;;;;16.84;nan;102265.19;5069404;28;20546;-70
2021/09/01 06:19:32;;;;;;;26.00;17.23;;;;;;;17.50;nan;102272.69;5066175;28;20261;-70
2021/09/01 06:21:58;;;;;;;25.97;16.97;;;;;;;17.46;nan;102277.94;5073871;28;20219;-71
2021/09/01 06:24:23;;;;;;;20.97;15.50;;;;;;;17.77;nan;102281.59;5051523;28;20499;-70
2021/09/01 06:26:49;;;;;;;21.33;16.30;;;;;;;17.16;nan;102272.47;5049954;28;20444;-70
2021/09/01 06:29:14;;;;;;;23.77;15.93;;;;;;;17.51;nan;102279.72;5065676;28;20235;-71
2021/09/01 06:31:39;;;;;;;21.70;16.50;;;;;;;17.27;nan;102276.94;5064928;28;20181;-71
2021/09/01 06:34:06;;;;;;;21.10;15.33;;;;;;;17.29;nan;102283.09;5076059;28;20230;-70
2021/09/01 06:36:31;;;;;;;21.27;16.70;;;;;;;17.68;nan;102276.28;5064963;28;20219;-69
2021/09/01 06:38:57;;;;;;;23.00;16.53;;;;;;;18.04;nan;102274.72;5070597;28;20428;-70
2021/09/01 06:41:22;;;;;;;22.67;16.43;;;;;;;17.73;nan;102277.19;5071368;28;20169;-72
2021/09/01 06:43:47;;;;;;;22.47;16.90;;;;;;;17.21;nan;102274.25;5060221;28;20528;-70
2021/09/01 06:46:13;;;;;;;20.33;16.53;;;;;;;17.95;nan;102277.31;5054565;28;20561;-70
2021/09/01 06:48:38;;;;;;;21.63;15.77;;;;;;;18.04;nan;102279.97;5073480;28;20185;-71
2021/09/01 06:51:03;;;;;;;20.27;15.27;;;;;;;17.97;nan;102281.72;5068981;28;20208;-70
2021/09/01 06:53:29;;;;;;;21.87;15.97;;;;;;;18.27;nan;102268.63;5065797;28;20186;-72
2021/09/01 06:55:54;;;;;;;23.47;16.27;;;;;;;18.49;nan;102275.66;5076248;28;20204;-71
2021/09/01 06:58:19;;;;;;;20.30;15.37;;;;;;;18.31;nan;102273.88;5062779;28;20180;-74
2021/09/01 07:00:45;;;;;;;23.60;17.23;;;;;;;18.27;nan;102272.13;5071918;28;20169;-71
2021/09/01 07:03:11;;;;;;;24.50;15.83;;;;;;;18.13;nan;102276.47;5069378;28;20180;-70
2021/09/01 07:05:36;;;;;;;20.60;15.20;;;;;;;18.35;nan;102274.78;5066915;28;20181;-74
2021/09/01 07:08:10;;;;;;;19.53;15.40;;;;;;;18.60;nan;102272.16;5062432;28;20439;-73
2021/09/01 07:10:36;;;;;;;22.00;15.97;;;;;;;18.37;nan;102267.72;5073522;28;20265;-73
2021/09/01 07:13:01;;;;;;;21.17;15.57;;;;;;;18.36;nan;102276.56;5068147;28;20505;-71
2021/09/01 07:15:26;;;;;;;19.10;15.23;;;;;;;18.04;nan;102277.34;5065852;28;20288;-70
2021/09/01 07:17:52;;;;;;;21.83;15.30;;;;;;;19.07;nan;102268.66;5075731;28;20188;-70
2021/09/01 07:20:21;;;;;;;16.10;13.97;;;;;;;18.69;nan;102272.19;5062219;28;20181;-70
2021/09/01 07:22:46;;;;;;;17.73;14.90;;;;;;;19.56;nan;102274.72;5071318;28;20483;-71
2021/09/01 07:25:12;;;;;;;16.10;13.93;;;;;;;19.94;nan;102271.94;5051925;28;20426;-70
2021/09/01 07:27:37;;;;;;;15.10;13.20;;;;;;;21.13;nan;102268.44;5063801;28;20199;-74
2021/09/01 07:30:04;;;;;;;14.53;12.53;;;;;;;23.12;nan;102263.91;5062102;28;20304;-72
2021/09/01 07:32:30;;;;;;;14.87;12.03;;;;;;;21.79;nan;102269.50;5073737;28;20174;-74
2021/09/01 07:34:56;;;;;;;14.17;12.67;;;;;;;22.31;nan;102281.19;5066675;28;20932;-76
2021/09/01 07:37:22;;;;;;;12.33;11.23;;;;;;;22.64;nan;102270.09;5066255;28;20428;-76
2021/09/01 07:39:48;;;;;;;10.50;9.50;;;;;;;22.93;nan;102276.66;5074434;28;20180;-76
2021/09/01 07:42:13;;;;;;;12.43;10.70;;;;;;;22.79;nan;102275.13;5056174;28;20550;-75
2021/09/01 07:45:01;;;;;;;12.70;11.33;;;;;;;23.13;nan;102285.19;5058472;28;20174;-70
2021/09/01 07:47:26;;;;;;;12.63;11.33;;;;;;;22.83;nan;102283.94;5060886;28;20417;-70
2021/09/01 07:49:52;;;;;;;11.60;10.50;;;;;;;22.81;nan;102277.75;5054307;28;20534;-73
2021/09/01 07:52:17;;;;;;;12.10;11.10;;;;;;;22.72;nan;102281.47;5061340;28;20208;-73
2021/09/01 07:54:42;;;;;;;12.37;11.17;;;;;;;24.19;nan;102292.84;5071120;28;20268;-74
2021/09/01 07:57:07;;;;;;;14.00;11.10;;;;;;;22.85;nan;102292.75;5068322;28;20200;-72
2021/09/01 07:59:33;;;;;;;11.83;10.60;;;;;;;24.35;nan;102290.66;5064025;28;20199;-72
2021/09/01 08:01:58;;;;;;;11.90;10.70;;;;;;;25.44;nan;102288.84;5074249;28;20184;-73
2021/09/01 08:04:24;;;;;;;11.20;10.20;;;;;;;25.24;nan;102294.69;5055774;28;20169;-72
2021/09/01 08:06:50;;;;;;;11.70;10.60;;;;;;;26.04;nan;102283.56;5070185;28;20204;-73
2021/09/01 08:09:16;;;;;;;12.23;10.47;;;;;;;26.29;nan;102297.03;5069196;28;20423;-73
2021/09/01 08:11:41;;;;;;;10.67;9.77;;;;;;;27.03;nan;102293.72;5062782;28;20183;-73
2021/09/01 08:14:07;;;;;;;10.17;9.17;;;;;;;26.66;nan;102292.28;5073660;28;20426;-74
2021/09/01 08:16:32;;;;;;;11.60;9.13;;;;;;;26.37;nan;102294.09;5062711;28;20455;-74
2021/09/01 08:18:57;;;;;;;10.33;9.17;;;;;;;26.73;nan;102294.72;5068801;28;20260;-72
2021/09/01 08:21:23;;;;;;;9.60;8.60;;;;;;;26.87;nan;102299.59;5070292;28;20260;-73
2021/09/01 08:23:48;;;;;;;10.13;9.13;;;;;;;26.59;nan;102304.09;5061610;28;20192;-73
2021/09/01 08:26:14;;;;;;;10.73;8.67;;;;;;;27.27;nan;102294.63;5074077;28;20170;-73
2021/09/01 08:28:39;;;;;;;8.87;7.97;;;;;;;27.14;nan;102304.91;5064201;28;20455;-73
2021/09/01 08:31:05;;;;;;;8.90;7.70;;;;;;;26.96;nan;102302.91;5067187;28;20343;-70
2021/09/01 08:33:30;;;;;;;8.70;7.80;;;;;;;27.72;nan;102295.69;5070512;28;20173;-69
2021/09/01 08:35:55;;;;;;;7.90;7.20;;;;;;;27.22;nan;102292.16;5061144;28;20196;-71
2021/09/01 08:38:21;;;;;;;10.77;7.73;;;;;;;28.32;nan;102289.81;5079262;28;20180;-70
2021/09/01 08:40:49;;;;;;;8.50;7.70;;;;;;;27.87;nan;102287.09;5071479;28;20173;-72
2021/09/01 08:43:19;;;;;;;9.43;8.50;;;;;;;27.56;nan;102290.94;5073057;28;20180;-72
2021/09/01 08:45:48;;;;;;;7.90;7.10;;;;;;;28.22;nan;102297.38;5079399;28;20502;-70
2021/09/01 08:48:14;;;;;;;8.33;7.50;;;;;;;28.01;nan;102288.34;5067108;28;20738;-70
2021/09/01 08:50:40;;;;;;;7.50;6.80;;;;;;;27.85;nan;102294.31;5077381;28;20562;-69
2021/09/01 08:53:05;;;;;;;7.90;7.20;;;;;;;27.57;nan;102291.78;5073439;28;20513;-70
2021/09/01 08:55:31;;;;;;;8.60;7.10;;;;;;;28.12;nan;102293.28;5070807;28;20189;-71
2021/09/01 08:57:56;;;;;;;7.93;7.23;;;;;;;28.29;nan;102293.50;5080447;28;20181;-70
2021/09/01 09:00:21;;;;;;;11.27;10.27;;;;;;;29.08;nan;102284.88;5061731;28;20237;-69
2021/09/01 09:02:54;;;;;;;8.87;7.90;;;;;;;28.27;nan;102279.28;5076858;28;20192;-71
2021/09/01 09:05:29;;;;;;;9.30;7.47;;;;;;;28.23;nan;102277.66;5069230;28;20180;-70
2021/09/01 09:07:55;;;;;;;8.00;7.20;;;;;;;28.80;nan;102277.13;5067310;28;20454;-70
2021/09/01 09:10:28;;;;;;;7.37;6.67;;;;;;;28.40;nan;102269.81;5080203;28;20431;-70
2021/09/01 09:12:58;;;;;;;7.93;7.13;;;;;;;28.11;nan;102270.97;5072005;28;20172;-70
2021/09/01 09:15:23;;;;;;;8.07;7.27;;;;;;;29.34;nan;102277.47;5071500;28;20502;-69
2021/09/01 09:17:49;;;;;;;7.93;7.13;;;;;;;29.53;nan;102281.06;5071695;28;20431;-69
2021/09/01 09:20:14;;;;;;;8.20;7.40;;;;;;;30.06;nan;102276.78;5066617;28;20184;-70
2021/09/01 09:22:41;;;;;;;8.53;7.73;;;;;;;28.18;nan;102285.88;5076522;28;20438;-68
2021/09/01 09:25:18;;;;;;;9.47;7.10;;;;;;;28.33;nan;102288.88;5072896;28;20195;-69
2021/09/01 09:27:56;;;;;;;7.77;7.03;;;;;;;28.68;nan;102290.13;5068527;28;20415;-69
2021/09/01 09:30:25;;;;;;;8.20;6.97;;;;;;;28.18;nan;102290.38;5051466;28;20478;-69
2021/09/01 09:33:20;;;;;;;7.80;6.63;;;;;;;28.82;nan;102297.63;5074860;28;20426;-70
2021/09/01 09:35:54;;;;;;;10.77;7.23;;;;;;;29.31;nan;102291.91;5074532;28;20497;-69
2021/09/01 09:38:30;;;;;;;9.43;7.30;;;;;;;29.16;nan;102293.44;5050576;28;20418;-71
2021/09/01 09:40:56;;;;;;;7.30;6.63;;;;;;;28.42;nan;102293.88;5075001;28;20407;-69
2021/09/01 09:43:23;;;;;;;6.90;6.30;;;;;;;29.06;nan;102290.31;5075875;28;20697;-70
2021/09/01 09:45:58;;;;;;;7.83;7.13;;;;;;;30.22;nan;102284.13;5068007;28;20260;-70
2021/09/01 09:48:28;;;;;;;7.53;6.83;;;;;;;28.86;nan;102292.97;5050615;28;20672;-72
2021/09/01 09:50:53;;;;;;;8.27;6.50;;;;;;;28.97;nan;102293.38;5072023;28;20440;-71
2021/09/01 09:53:37;;;;;;;7.87;6.80;;;;;;;29.34;nan;102288.22;5071957;28;20808;-72
2021/09/01 09:56:05;;;;;;;10.07;6.70;;;;;;;29.29;nan;102285.72;5063496;28;20213;-72
2021/09/01 09:58:52;;;;;;;8.80;6.43;;;;;;;29.38;nan;102297.88;5075062;28;20416;-73
2021/09/01 10:01:18;;;;;;;7.07;6.47;;;;;;;30.22;nan;102290.38;5071810;28;20723;-72
2021/09/01 10:03:44;;;;;;;7.00;6.30;;;;;;;29.73;nan;102296.25;5059978;28;20829;-62
2021/09/01 10:06:17;;;;;;;7.10;6.40;;;;;;;29.60;nan;102288.84;5074683;28;20728;-61
2021/09/01 10:08:43;;;;;;;7.47;6.20;;;;;;;31.20;nan;102286.38;5066168;28;20819;-61
2021/09/01 10:11:11;;;;;;;7.73;6.93;;;;;;;30.05;nan;102283.13;5069712;28;20426;-74
2021/09/01 10:13:42;;;;;;;7.20;6.50;;;;;;;29.82;nan;102294.97;5073850;28;20415;-64
2021/09/01 10:16:20;;;;;;;7.43;6.47;;;;;;;27.19;nan;102312.78;5063281;28;20503;-64
2021/09/01 10:18:48;;;;;;;7.40;6.73;;;;;;;28.88;nan;102302.69;5052859;28;20440;-65
2021/09/01 10:21:14;;;;;;;7.33;6.20;;;;;;;29.55;nan;102308.75;5068909;28;20450;-64
2021/09/01 10:23:42;;;;;;;9.00;6.93;;;;;;;29.70;nan;102300.88;5065175;28;20458;-64
2021/09/01 10:26:32;;;;;;;7.47;6.40;;;;;;;28.82;nan;102302.97;5075147;28;20436;-66
2021/09/01 10:28:59;;;;;;;6.67;6.07;;;;;;;26.43;nan;102315.31;5070339;28;20771;-65
2021/09/01 10:31:32;;;;;;;8.30;6.40;;;;;;;27.45;nan;102303.84;5072097;28;20513;-66
2021/09/01 10:34:18;;;;;;;11.30;6.90;;;;;;;26.76;nan;102308.91;5061967;28;20424;-66
2021/09/01 10:36:56;;;;;;;8.53;7.10;;;;;;;26.67;nan;102308.28;5072625;28;20530;-66
2021/09/01 10:39:30;;;;;;;9.33;7.17;;;;;;;27.78;nan;102292.81;5071741;28;20503;-69
2021/09/01 10:41:56;;;;;;;8.23;6.70;;;;;;;27.28;nan;102300.84;5074228;28;20717;-74
2021/09/01 10:44:41;;;;;;;7.90;6.53;;;;;;;26.63;nan;102300.38;5070222;28;20534;-62
2021/09/01 10:47:07;;;;;;;8.53;6.77;;;;;;;26.85;nan;102301.44;5069030;28;20183;-66
2021/09/01 10:49:54;;;;;;;10.30;7.57;;;;;;;25.88;nan;102309.81;5064967;28;20420;-65
2021/09/01 10:52:20;;;;;;;8.33;6.73;;;;;;;26.49;nan;102299.03;5046502;28;20391;-65
2021/09/01 10:54:46;;;;;;;10.63;6.57;;;;;;;27.47;nan;102293.94;5071684;28;20427;-61
2021/09/01 10:57:22;;;;;;;8.20;6.60;;;;;;;27.93;nan;102293.13;5058028;28;20193;-67
2021/09/01 10:59:47;;;;;;;7.87;6.50;;;;;;;28.16;nan;102292.25;5074444;28;20212;-62
2021/09/01 11:02:20;;;;;;;7.70;6.90;;;;;;;28.93;nan;102296.25;5060769;28;21688;-62
2021/09/01 11:04:50;;;;;;;10.73;6.77;;;;;;;29.78;nan;102296.03;5066281;28;20195;-64
2021/09/01 11:07:21;;;;;;;10.23;7.40;;;;;;;28.93;nan;102288.19;5067389;28;20787;-71
2021/09/01 11:09:54;;;;;;;14.77;6.37;;;;;;;28.08;nan;102284.53;5074383;28;20427;-61
2021/09/01 11:12:19;;;;;;;15.07;9.13;;;;;;;28.98;nan;102283.50;5060741;28;20695;-60
2021/09/01 11:14:49;;;;;;;8.43;7.33;;;;;;;28.86;nan;102287.59;5071782;28;20408;-70
2021/09/01 11:17:22;;;;;;;9.30;6.50;;;;;;;29.34;nan;102278.34;5070503;28;20459;-71
2021/09/01 11:19:50;;;;;;;7.90;6.67;;;;;;;29.80;nan;102280.72;5063107;28;20498;-70
2021/09/01 11:22:17;;;;;;;11.60;6.37;;;;;;;28.95;nan;102283.66;5075224;28;20435;-62
2021/09/01 11:24:52;;;;;;;7.77;6.70;;;;;;;28.51;nan;102280.09;5065450;28;20430;-61
2021/09/01 11:27:24;;;;;;;9.40;7.27;;;;;;;28.73;nan;102287.25;5066840;28;20463;-61
2021/09/01 11:29:51;;;;;;;7.70;6.77;;;;;;;26.99;nan;102281.38;5074535;28;20471;-66